createdAt,value
2023-03-02T00:00:16.054Z,100.00
2023-03-02T00:02:45.193Z,100.00
2023-03-02T00:05:14.506Z,100.00
2023-03-02T00:07:43.875Z,100.00
2023-03-02T00:10:12.602Z,100.00
2023-03-02T00:12:40.335Z,100.00
2023-03-02T00:15:09.362Z,100.00
2023-03-02T00:17:37.245Z,100.00
2023-03-02T00:20:09.993Z,100.00
2023-03-02T00:22:37.946Z,100.00
2023-03-02T00:25:08.705Z,100.00
2023-03-02T00:27:36.944Z,100.00
2023-03-02T00:30:05.120Z,100.00
2023-03-02T00:32:32.899Z,100.00
2023-03-02T00:35:00.862Z,100.00
2023-03-02T00:37:28.628Z,100.00
2023-03-02T00:39:56.452Z,100.00
2023-03-02T00:42:25.577Z,100.00
2023-03-02T00:44:53.906Z,100.00
2023-03-02T00:47:21.625Z,100.00
2023-03-02T00:49:49.639Z,100.00
2023-03-02T00:52:20.406Z,100.00
2023-03-02T00:54:48.179Z,100.00
2023-03-02T00:57:16.032Z,100.00
2023-03-02T00:59:45.197Z,100.00
2023-03-02T01:02:15.360Z,100.00
2023-03-02T01:04:44.737Z,100.00
2023-03-02T01:07:14.850Z,100.00
2023-03-02T01:09:44.232Z,100.00
2023-03-02T01:12:12.954Z,100.00
2023-03-02T01:14:42.648Z,100.00
2023-03-02T01:17:13.039Z,100.00
2023-03-02T01:19:43.091Z,100.00
2023-03-02T01:22:11.026Z,100.00
2023-03-02T01:24:38.819Z,100.00
2023-03-02T01:27:08.052Z,100.00
2023-03-02T01:29:35.871Z,100.00
2023-03-02T01:32:03.762Z,100.00
2023-03-02T01:34:33.285Z,100.00
2023-03-02T01:37:01.055Z,100.00
2023-03-02T01:39:28.859Z,100.00
2023-03-02T01:41:56.632Z,100.00
2023-03-02T01:44:39.493Z,100.00
2023-03-02T01:47:13.990Z,100.00
2023-03-02T01:49:47.551Z,100.00
2023-03-02T01:52:16.623Z,100.00
2023-03-02T01:54:49.905Z,100.00
2023-03-02T01:57:22.960Z,100.00
2023-03-02T01:59:58.149Z,100.00
2023-03-02T02:02:26.439Z,100.00
2023-03-02T02:04:59.999Z,100.00
2023-03-02T02:07:30.317Z,100.00
2023-03-02T02:09:58.555Z,100.00
2023-03-02T02:12:26.306Z,100.00
2023-03-02T02:14:57.952Z,100.00
2023-03-02T02:17:26.299Z,100.00
2023-03-02T02:20:07.861Z,100.00
2023-03-02T02:22:50.780Z,100.00
2023-03-02T02:25:27.548Z,100.00
2023-03-02T02:27:58.252Z,100.00
2023-03-02T02:30:27.305Z,100.00
2023-03-02T02:32:56.499Z,100.00
2023-03-02T02:35:28.390Z,100.00
2023-03-02T02:38:02.944Z,100.00
2023-03-02T02:40:44.269Z,100.00
2023-03-02T02:43:18.405Z,100.00
2023-03-02T02:45:47.332Z,100.00
2023-03-02T02:48:17.466Z,100.00
2023-03-02T02:50:47.289Z,100.00
2023-03-02T02:53:19.338Z,100.00
2023-03-02T02:55:49.891Z,100.00
2023-03-02T02:58:31.318Z,100.00
2023-03-02T03:01:00.542Z,100.00
2023-03-02T03:03:30.901Z,100.00
2023-03-02T03:05:59.874Z,100.00
2023-03-02T03:08:53.807Z,100.00
2023-03-02T03:11:27.375Z,100.00
2023-03-02T03:14:09.465Z,100.00
2023-03-02T03:16:39.528Z,100.00
2023-03-02T03:19:13.072Z,100.00
2023-03-02T03:21:43.142Z,100.00
2023-03-02T03:24:11.261Z,100.00
2023-03-02T03:26:40.306Z,100.00
2023-03-02T03:29:09.528Z,100.00
2023-03-02T03:31:37.240Z,100.00
2023-03-02T03:34:05.827Z,100.00
2023-03-02T03:36:34.841Z,100.00
2023-03-02T03:39:05.655Z,100.00
2023-03-02T03:41:33.900Z,100.00
2023-03-02T03:44:01.951Z,100.00
2023-03-02T03:46:35.073Z,100.00
2023-03-02T03:49:05.876Z,100.00
2023-03-02T03:51:35.513Z,100.00
2023-03-02T03:54:04.222Z,100.00
2023-03-02T03:56:34.964Z,100.00
2023-03-02T03:59:07.373Z,100.00
2023-03-02T04:01:38.781Z,100.00
2023-03-02T04:04:10.557Z,100.00
2023-03-02T04:06:41.575Z,100.00
2023-03-02T04:09:12.342Z,100.00
2023-03-02T04:11:43.032Z,100.00
2023-03-02T04:14:11.064Z,100.00
2023-03-02T04:16:40.881Z,100.00
2023-03-02T04:19:10.329Z,100.00
2023-03-02T04:21:41.308Z,100.00
2023-03-02T04:24:10.954Z,100.00
2023-03-02T04:26:40.696Z,100.00
2023-03-02T04:29:08.997Z,100.00
2023-03-02T04:31:37.587Z,100.00
2023-03-02T04:34:07.667Z,100.00
2023-03-02T04:36:39.267Z,100.00
2023-03-02T04:39:10.084Z,100.00
2023-03-02T04:41:37.965Z,100.00
2023-03-02T04:44:06.079Z,100.00
2023-03-02T04:46:35.227Z,100.00
2023-03-02T04:49:04.291Z,100.00
2023-03-02T04:51:36.449Z,100.00
2023-03-02T04:54:07.639Z,100.00
2023-03-02T04:56:36.118Z,100.00
2023-03-02T04:59:03.938Z,100.00
2023-03-02T05:01:32.855Z,100.00
2023-03-02T05:04:02.794Z,100.00
2023-03-02T05:06:30.958Z,100.00
2023-03-02T05:09:00.577Z,100.00
2023-03-02T05:11:29.073Z,100.00
2023-03-02T05:13:58.735Z,100.00
2023-03-02T05:16:29.560Z,100.00
2023-03-02T05:18:57.541Z,100.00
2023-03-02T05:21:25.775Z,100.00
2023-03-02T05:23:54.168Z,100.00
2023-03-02T05:26:23.328Z,100.00
2023-03-02T05:28:53.932Z,100.00
2023-03-02T05:31:24.279Z,100.00
2023-03-02T05:33:52.052Z,100.00
2023-03-02T05:36:23.486Z,100.00
2023-03-02T05:38:51.606Z,100.00
2023-03-02T05:41:19.418Z,100.00
2023-03-02T05:43:48.621Z,100.00
2023-03-02T05:46:17.498Z,100.00
2023-03-02T05:48:45.378Z,100.00
2023-03-02T05:51:13.410Z,100.00
2023-03-02T05:53:41.144Z,100.00
2023-03-02T05:56:09.589Z,100.00
2023-03-02T05:58:39.449Z,100.00
2023-03-02T06:01:13.646Z,100.00
2023-03-02T06:03:45.720Z,100.00
2023-03-02T06:06:14.565Z,100.00
2023-03-02T06:08:44.542Z,100.00
2023-03-02T06:11:13.212Z,100.00
2023-03-02T06:13:41.346Z,100.00
2023-03-02T06:16:11.017Z,100.00
2023-03-02T06:18:41.486Z,100.00
2023-03-02T06:21:09.934Z,100.00
2023-03-02T06:23:37.650Z,100.00
2023-03-02T06:26:09.266Z,100.00
2023-03-02T06:28:49.781Z,100.00
2023-03-02T06:31:21.048Z,100.00
2023-03-02T06:33:50.904Z,100.00
2023-03-02T06:36:18.725Z,100.00
2023-03-02T06:38:46.396Z,100.00
2023-03-02T06:41:14.079Z,100.00
2023-03-02T06:43:43.487Z,100.00
2023-03-02T06:46:11.308Z,100.00
2023-03-02T06:48:40.396Z,100.00
2023-03-02T06:51:08.245Z,100.00
2023-03-02T06:53:35.955Z,100.00
2023-03-02T06:56:03.652Z,100.00
2023-03-02T06:58:31.335Z,100.00
2023-03-02T07:00:59.109Z,100.00
2023-03-02T07:03:27.098Z,100.00
2023-03-02T07:05:56.620Z,100.00
2023-03-02T07:08:24.293Z,100.00
2023-03-02T07:10:52.037Z,100.00
2023-03-02T07:13:19.780Z,100.00
2023-03-02T07:15:47.622Z,100.00
2023-03-02T07:18:15.341Z,100.00
2023-03-02T07:20:43.089Z,100.00
2023-03-02T07:23:12.145Z,100.00
2023-03-02T07:25:39.866Z,100.00
2023-03-02T07:28:07.618Z,100.00
2023-03-02T07:30:35.487Z,100.00
2023-03-02T07:33:03.187Z,100.00
2023-03-02T07:35:31.056Z,100.00
2023-03-02T07:37:58.757Z,100.00
2023-03-02T07:40:27.817Z,100.00
2023-03-02T07:42:55.572Z,100.00
2023-03-02T07:45:24.978Z,100.00
2023-03-02T07:47:52.994Z,100.00
2023-03-02T07:50:20.894Z,100.00
2023-03-02T07:52:48.621Z,100.00
2023-03-02T07:55:16.369Z,100.00
2023-03-02T07:57:45.425Z,100.00
2023-03-02T08:00:14.050Z,100.00
2023-03-02T08:02:44.533Z,100.00
2023-03-02T08:05:14.172Z,100.00
2023-03-02T08:07:42.286Z,100.00
2023-03-02T08:10:13.125Z,100.00
2023-03-02T08:12:42.837Z,100.00
2023-03-02T08:15:13.286Z,100.00
2023-03-02T08:17:41.111Z,100.00
2023-03-02T08:20:09.858Z,100.00
2023-03-02T08:22:37.675Z,100.00
2023-03-02T08:25:07.297Z,100.00
2023-03-02T08:27:35.072Z,100.00
2023-03-02T08:30:05.133Z,100.00
2023-03-02T08:32:35.315Z,100.00
2023-03-02T08:35:03.412Z,100.00
2023-03-02T08:37:31.254Z,100.00
2023-03-02T08:39:59.044Z,100.00
2023-03-02T08:42:26.795Z,100.00
2023-03-02T08:44:54.513Z,100.00
2023-03-02T08:47:22.305Z,100.00
2023-03-02T08:49:51.744Z,100.00
2023-03-02T08:52:19.463Z,100.00
2023-03-02T08:54:47.701Z,100.00
2023-03-02T08:57:15.399Z,100.00
2023-03-02T08:59:45.137Z,100.00
2023-03-02T09:02:13.181Z,100.00
2023-03-02T09:04:41.179Z,100.00
2023-03-02T09:07:10.776Z,100.00
2023-03-02T09:09:38.490Z,100.00
2023-03-02T09:12:06.437Z,100.00
2023-03-02T09:14:34.269Z,100.00
2023-03-02T09:17:02.081Z,100.00
2023-03-02T09:19:29.816Z,100.00
2023-03-02T09:21:57.641Z,100.00
2023-03-02T09:24:26.795Z,100.00
2023-03-02T09:26:54.970Z,100.00
2023-03-02T09:29:22.685Z,100.00
2023-03-02T09:31:50.436Z,100.00
2023-03-02T09:34:18.209Z,100.00
2023-03-02T09:36:46.058Z,100.00
2023-03-02T09:39:14.073Z,100.00
2023-03-02T09:42:17.422Z,100.00
2023-03-02T09:45:23.771Z,100.00
2023-03-02T09:48:00.190Z,100.00
2023-03-02T09:50:32.155Z,100.00
2023-03-02T09:53:25.450Z,100.00
2023-03-02T09:55:59.031Z,100.00
2023-03-02T09:58:33.117Z,100.00
2023-03-02T10:01:04.404Z,100.00
2023-03-02T10:03:39.808Z,100.00
2023-03-02T10:06:07.738Z,100.00
2023-03-02T10:08:40.905Z,100.00
2023-03-02T10:11:17.924Z,100.00
2023-03-02T10:13:50.556Z,100.00
2023-03-02T10:16:32.048Z,100.00
2023-03-02T10:19:07.482Z,100.00
2023-03-02T10:21:40.194Z,100.00
2023-03-02T10:24:17.565Z,100.00
2023-03-02T10:26:48.235Z,100.00
2023-03-02T10:29:33.825Z,100.00
2023-03-02T10:32:11.647Z,100.00
2023-03-02T10:34:39.715Z,100.00
2023-03-02T10:37:13.147Z,100.00
2023-03-02T10:39:40.945Z,100.00
2023-03-02T10:42:14.102Z,100.00
2023-03-02T10:44:48.799Z,100.00
2023-03-02T10:47:25.396Z,100.00
2023-03-02T10:49:54.259Z,100.00
2023-03-02T10:52:23.637Z,100.00
2023-03-02T10:55:02.207Z,100.00
2023-03-02T10:57:37.732Z,100.00
2023-03-02T11:00:15.157Z,100.00
2023-03-02T11:02:50.786Z,100.00
2023-03-02T11:05:27.705Z,100.00
2023-03-02T11:07:57.746Z,100.00
2023-03-02T11:10:29.077Z,100.00
2023-03-02T11:12:56.910Z,100.00
2023-03-02T11:15:29.575Z,100.00
2023-03-02T11:18:08.327Z,100.00
2023-03-02T11:20:39.750Z,100.00
2023-03-02T11:23:17.746Z,100.00
2023-03-02T11:25:50.474Z,100.00
2023-03-02T11:28:32.867Z,100.00
2023-03-02T11:31:03.744Z,100.00
2023-03-02T11:33:38.392Z,100.00
2023-03-02T11:36:13.548Z,97.01
2023-03-02T11:38:48.700Z,96.59
2023-03-02T11:41:29.735Z,94.84
2023-03-02T11:44:00.823Z,95.09
2023-03-02T11:46:33.702Z,95.11
2023-03-02T11:49:06.620Z,93.47
2023-03-02T11:51:37.824Z,96.04
2023-03-02T11:54:20.263Z,86.75
2023-03-02T11:56:48.136Z,86.43
2023-03-02T11:59:21.243Z,86.04
2023-03-02T12:01:59.641Z,88.11
2023-03-02T12:04:32.245Z,82.96
2023-03-02T12:07:00.819Z,88.90
2023-03-02T12:09:39.469Z,85.58
2023-03-02T12:12:32.960Z,90.90
2023-03-02T12:15:02.726Z,82.96
2023-03-02T12:17:36.585Z,79.80
2023-03-02T12:20:27.224Z,83.96
2023-03-02T12:22:55.973Z,75.72
2023-03-02T12:25:38.593Z,78.91
2023-03-02T12:28:06.441Z,79.80
2023-03-02T12:30:34.158Z,77.46
2023-03-02T12:33:21.282Z,83.32
2023-03-02T12:35:56.208Z,80.76
2023-03-02T12:38:30.971Z,86.31
2023-03-02T12:41:27.543Z,81.86
2023-03-02T12:44:06.230Z,84.21
2023-03-02T12:46:35.171Z,84.79
2023-03-02T12:49:22.699Z,80.22
2023-03-02T12:51:55.899Z,74.47
2023-03-02T12:54:25.592Z,74.49
2023-03-02T12:57:06.251Z,77.50
2023-03-02T12:59:34.147Z,76.80
2023-03-02T13:02:23.618Z,76.99
2023-03-02T13:04:57.415Z,75.55
2023-03-02T13:07:28.412Z,72.49
2023-03-02T13:09:59.180Z,70.77
2023-03-02T13:12:29.411Z,73.96
2023-03-02T13:14:59.174Z,76.13
2023-03-02T13:17:30.871Z,76.57
2023-03-02T13:20:02.622Z,79.53
2023-03-02T13:22:30.924Z,81.15
2023-03-02T13:25:00.463Z,86.31
2023-03-02T13:27:29.140Z,79.89
2023-03-02T13:29:57.388Z,79.60
2023-03-02T13:32:26.859Z,74.81
2023-03-02T13:34:56.791Z,73.96
2023-03-02T13:37:37.637Z,81.13
2023-03-02T13:40:09.049Z,82.56
2023-03-02T13:42:39.499Z,82.42
2023-03-02T13:45:23.285Z,84.26
2023-03-02T13:47:53.979Z,83.64
2023-03-02T13:50:24.376Z,85.70
2023-03-02T13:52:56.033Z,82.94
2023-03-02T13:55:24.562Z,87.29
2023-03-02T13:57:54.372Z,92.21
2023-03-02T14:00:32.532Z,91.34
2023-03-02T14:03:00.335Z,92.88
2023-03-02T14:05:33.331Z,83.52
2023-03-02T14:08:03.581Z,80.34
2023-03-02T14:10:31.403Z,79.29
2023-03-02T14:13:02.751Z,75.93
2023-03-02T14:15:30.591Z,71.35
2023-03-02T14:17:58.395Z,69.15
2023-03-02T14:20:26.119Z,66.63
2023-03-02T14:22:53.835Z,72.94
2023-03-02T14:25:23.013Z,73.86
2023-03-02T14:27:50.829Z,83.17
2023-03-02T14:30:20.673Z,87.29
2023-03-02T14:32:51.177Z,81.43
2023-03-02T14:35:19.091Z,75.39
2023-03-02T14:37:49.270Z,88.18
2023-03-02T14:40:22.421Z,81.76
2023-03-02T14:42:52.098Z,69.03
2023-03-02T14:45:20.443Z,66.13
2023-03-02T14:47:50.338Z,86.64
2023-03-02T14:50:18.388Z,100.00
2023-03-02T14:52:50.663Z,100.00
2023-03-02T14:55:25.726Z,100.00
2023-03-02T14:57:57.187Z,100.00
2023-03-02T15:00:25.862Z,100.00
2023-03-02T15:02:53.670Z,100.00
2023-03-02T15:05:21.829Z,100.00
2023-03-02T15:07:50.389Z,100.00
2023-03-02T15:10:20.947Z,100.00
2023-03-02T15:12:48.904Z,100.00
2023-03-02T15:15:18.607Z,100.00
2023-03-02T15:17:46.478Z,100.00
2023-03-02T15:20:16.397Z,100.00
2023-03-02T15:22:44.306Z,100.00
2023-03-02T15:25:12.550Z,100.00
2023-03-02T15:27:41.539Z,100.00
2023-03-02T15:30:12.162Z,100.00
2023-03-02T15:32:41.360Z,100.00
2023-03-02T15:35:09.731Z,100.00
2023-03-02T15:37:37.413Z,100.00
2023-03-02T15:40:06.300Z,100.00
2023-03-02T15:42:34.053Z,100.00
2023-03-02T15:45:01.821Z,100.00
2023-03-02T15:47:29.667Z,100.00
2023-03-02T15:49:58.741Z,100.00
2023-03-02T15:52:26.776Z,100.00
2023-03-02T15:54:54.511Z,100.00
2023-03-02T15:57:22.204Z,100.00
2023-03-02T15:59:49.933Z,100.00
2023-03-02T16:02:17.995Z,100.00
2023-03-02T16:04:45.919Z,100.00
2023-03-02T16:07:14.977Z,100.00
2023-03-02T16:09:45.253Z,100.00
2023-03-02T16:12:12.979Z,100.00
2023-03-02T16:14:40.804Z,100.00
2023-03-02T16:17:08.514Z,100.00
2023-03-02T16:19:37.698Z,100.00
2023-03-02T16:22:05.696Z,100.00
2023-03-02T16:24:34.753Z,100.00
2023-03-02T16:27:02.479Z,100.00
2023-03-02T16:29:31.072Z,100.00
2023-03-02T16:31:58.912Z,100.00
2023-03-02T16:34:26.804Z,100.00
2023-03-02T16:36:54.561Z,100.00
2023-03-02T16:39:22.479Z,100.00
2023-03-02T16:41:51.594Z,100.00
2023-03-02T16:44:20.048Z,100.00
2023-03-02T16:46:51.337Z,100.00
2023-03-02T16:49:19.092Z,100.00
2023-03-02T16:51:49.141Z,100.00
2023-03-02T16:54:18.588Z,100.00
2023-03-02T16:56:47.407Z,100.00
2023-03-02T16:59:16.855Z,100.00
2023-03-02T17:01:44.844Z,100.00
2023-03-02T17:04:18.304Z,100.00
2023-03-02T17:07:02.278Z,100.00
2023-03-02T17:09:30.268Z,100.00
2023-03-02T17:11:58.465Z,100.00
2023-03-02T17:14:30.303Z,100.00
2023-03-02T17:16:58.290Z,100.00
2023-03-02T17:19:26.910Z,100.00
2023-03-02T17:21:57.487Z,100.00
2023-03-02T17:24:25.233Z,100.00
2023-03-02T17:26:52.995Z,100.00
2023-03-02T17:29:20.821Z,100.00
2023-03-02T17:31:50.091Z,100.00
2023-03-02T17:34:17.808Z,100.00
2023-03-02T17:36:45.639Z,100.00
2023-03-02T17:39:13.378Z,100.00
2023-03-02T17:41:41.206Z,100.00
2023-03-02T17:44:08.989Z,100.00
2023-03-02T17:46:36.798Z,100.00
2023-03-02T17:49:05.930Z,100.00
2023-03-02T17:51:33.639Z,100.00
2023-03-02T17:54:01.439Z,100.00
2023-03-02T17:56:30.074Z,100.00
2023-03-02T17:59:02.918Z,100.00
2023-03-02T18:01:36.005Z,100.00
2023-03-02T18:04:05.527Z,100.00
2023-03-02T18:06:33.699Z,100.00
2023-03-02T18:09:01.503Z,100.00
2023-03-02T18:11:29.597Z,100.00
2023-03-02T18:13:58.043Z,100.00
2023-03-02T18:16:28.182Z,100.00
2023-03-02T18:18:56.264Z,100.00
2023-03-02T18:21:25.499Z,100.00
2023-03-02T18:23:54.999Z,100.00
2023-03-02T18:26:22.790Z,100.00
2023-03-02T18:28:50.703Z,100.00
2023-03-02T18:31:19.417Z,100.00
2023-03-02T18:33:47.557Z,100.00
2023-03-02T18:36:20.878Z,100.00
2023-03-02T18:38:53.010Z,100.00
2023-03-02T18:41:21.117Z,100.00
2023-03-02T18:43:49.149Z,100.00
2023-03-02T18:46:19.997Z,100.00
2023-03-02T18:48:49.464Z,100.00
2023-03-02T18:51:17.723Z,100.00
2023-03-02T18:53:46.770Z,100.00
2023-03-02T18:56:19.684Z,100.00
2023-03-02T18:58:48.508Z,100.00
2023-03-02T19:01:17.006Z,100.00
2023-03-02T19:03:45.759Z,100.00
2023-03-02T19:06:14.197Z,100.00
2023-03-02T19:08:42.146Z,100.00
2023-03-02T19:11:10.109Z,100.00
2023-03-02T19:13:39.214Z,100.00
2023-03-02T19:16:07.904Z,100.00
2023-03-02T19:18:35.706Z,100.00
2023-03-02T19:21:04.940Z,100.00
2023-03-02T19:23:33.326Z,100.00
2023-03-02T19:26:01.690Z,100.00
2023-03-02T19:28:32.393Z,100.00
2023-03-02T19:31:04.008Z,100.00
2023-03-02T19:33:31.750Z,100.00
2023-03-02T19:35:59.603Z,100.00
2023-03-02T19:38:29.297Z,100.00
2023-03-02T19:40:58.419Z,100.00
2023-03-02T19:43:26.723Z,100.00
2023-03-02T19:45:54.684Z,100.00
2023-03-02T19:48:26.495Z,100.00
2023-03-02T19:50:54.243Z,100.00
2023-03-02T19:53:22.036Z,100.00
2023-03-02T19:55:51.453Z,100.00
2023-03-02T19:58:19.888Z,100.00
2023-03-02T20:00:48.898Z,100.00
2023-03-02T20:03:16.687Z,100.00
2023-03-02T20:05:47.228Z,100.00
2023-03-02T20:08:16.726Z,100.00
2023-03-02T20:10:46.478Z,100.00
2023-03-02T20:13:17.584Z,100.00
2023-03-02T20:15:48.443Z,100.00
2023-03-02T20:18:19.751Z,100.00
2023-03-02T20:20:49.793Z,100.00
2023-03-02T20:23:17.600Z,100.00
2023-03-02T20:25:47.926Z,100.00
2023-03-02T20:28:18.568Z,100.00
2023-03-02T20:30:48.826Z,100.00
2023-03-02T20:33:16.739Z,100.00
2023-03-02T20:35:46.297Z,100.00
2023-03-02T20:38:21.927Z,100.00
2023-03-02T20:40:50.032Z,100.00
2023-03-02T20:43:18.535Z,100.00
2023-03-02T20:45:46.524Z,100.00
2023-03-02T20:48:14.732Z,100.00
2023-03-02T20:50:43.613Z,100.00
2023-03-02T20:53:12.593Z,100.00
2023-03-02T20:55:41.703Z,100.00
2023-03-02T20:58:10.029Z,100.00
2023-03-02T21:00:38.451Z,100.00
2023-03-02T21:03:07.012Z,100.00
2023-03-02T21:05:36.808Z,100.00
2023-03-02T21:08:04.893Z,100.00
2023-03-02T21:10:35.703Z,100.00
2023-03-02T21:13:07.595Z,100.00
2023-03-02T21:15:35.708Z,100.00
2023-03-02T21:18:03.547Z,100.00
2023-03-02T21:20:35.816Z,100.00
2023-03-02T21:23:04.266Z,100.00
2023-03-02T21:25:32.144Z,100.00
2023-03-02T21:28:02.271Z,100.00
2023-03-02T21:30:36.827Z,100.00
2023-03-02T21:33:04.797Z,100.00
2023-03-02T21:35:32.852Z,100.00
2023-03-02T21:38:04.730Z,100.00
2023-03-02T21:40:34.821Z,100.00
2023-03-02T21:43:05.337Z,100.00
2023-03-02T21:45:35.687Z,100.00
2023-03-02T21:48:03.847Z,100.00
2023-03-02T21:50:33.782Z,100.00
2023-03-02T21:53:01.509Z,100.00
2023-03-02T21:55:30.483Z,100.00
2023-03-02T21:57:58.249Z,100.00
2023-03-02T22:00:32.462Z,100.00
2023-03-02T22:03:02.739Z,100.00
2023-03-02T22:05:32.898Z,100.00
2023-03-02T22:08:00.904Z,100.00
2023-03-02T22:10:32.612Z,100.00
2023-03-02T22:13:15.032Z,100.00
2023-03-02T22:15:42.774Z,100.00
2023-03-02T22:18:13.338Z,100.00
2023-03-02T22:20:43.852Z,100.00
2023-03-02T22:23:13.091Z,100.00
2023-03-02T22:25:40.910Z,100.00
2023-03-02T22:28:27.607Z,100.00
2023-03-02T22:31:01.017Z,100.00
2023-03-02T22:33:37.723Z,100.00
2023-03-02T22:36:15.245Z,100.00
2023-03-02T22:38:45.602Z,100.00
2023-03-02T22:41:15.575Z,100.00
2023-03-02T22:43:44.366Z,100.00
2023-03-02T22:46:15.830Z,100.00
2023-03-02T22:48:46.461Z,100.00
2023-03-02T22:51:17.084Z,100.00
2023-03-02T22:53:50.011Z,100.00
2023-03-02T23:00:40.306Z,100.00
2023-03-02T23:03:20.262Z,100.00
2023-03-02T23:05:51.594Z,100.00
2023-03-02T23:08:22.827Z,100.00
2023-03-02T23:10:51.655Z,100.00
2023-03-02T23:13:25.107Z,100.00
2023-03-02T23:15:56.118Z,100.00
2023-03-02T23:18:27.056Z,100.00
2023-03-02T23:20:55.349Z,100.00
2023-03-02T23:23:27.279Z,100.00
2023-03-02T23:25:55.469Z,100.00
2023-03-02T23:28:23.574Z,100.00
2023-03-02T23:30:51.342Z,100.00
2023-03-02T23:33:20.430Z,100.00
2023-03-02T23:35:48.277Z,100.00
2023-03-02T23:38:16.040Z,100.00
2023-03-02T23:40:43.852Z,100.00
2023-03-02T23:43:11.589Z,100.00
2023-03-02T23:45:39.929Z,100.00
2023-03-02T23:48:08.044Z,100.00
2023-03-02T23:50:37.142Z,100.00
2023-03-02T23:53:06.573Z,100.00
2023-03-02T23:55:35.118Z,100.00
2023-03-02T23:58:02.886Z,100.00
